createdAt,value
2018-08-25T00:00:53.802Z,94.30
2018-08-25T00:03:23.728Z,94.24
2018-08-25T00:05:52.968Z,93.80
2018-08-25T00:08:22.392Z,93.73
2018-08-25T00:10:52.278Z,93.85
2018-08-25T00:13:21.758Z,93.93
2018-08-25T00:15:51.242Z,93.73
2018-08-25T00:18:21.037Z,93.70
2018-08-25T00:20:50.581Z,93.52
2018-08-25T00:23:20.152Z,93.82
2018-08-25T00:25:50.184Z,93.40
2018-08-25T00:28:19.926Z,93.92
2018-08-25T00:30:54.634Z,93.78
2018-08-25T00:33:23.981Z,93.85
2018-08-25T00:35:53.238Z,93.67
2018-08-25T00:38:24.614Z,94.14
2018-08-25T00:40:53.976Z,95.18
2018-08-25T00:43:23.239Z,95.83
2018-08-25T00:45:52.558Z,95.34
2018-08-25T00:48:21.962Z,95.01
2018-08-25T00:50:51.276Z,94.60
2018-08-25T00:53:20.628Z,94.97
2018-08-25T00:55:51.136Z,94.62
2018-08-25T00:58:20.625Z,94.27
2018-08-25T01:00:50.335Z,94.63
2018-08-25T01:03:20.013Z,94.42
2018-08-25T01:05:49.470Z,94.09
2018-08-25T01:08:19.851Z,94.35
2018-08-25T01:10:49.356Z,94.73
2018-08-25T01:13:19.351Z,95.01
2018-08-25T01:15:49.131Z,94.72
2018-08-25T01:18:18.844Z,94.44
2018-08-25T01:20:48.753Z,94.72
2018-08-25T01:23:19.153Z,95.23
2018-08-25T01:25:48.823Z,95.31
2018-08-25T01:28:18.492Z,95.23
2018-08-25T01:30:48.235Z,95.13
2018-08-25T01:33:17.617Z,95.13
2018-08-25T01:35:47.218Z,95.14
2018-08-25T01:38:17.433Z,95.91
2018-08-25T01:40:46.850Z,96.00
2018-08-25T01:43:16.665Z,95.81
2018-08-25T01:45:46.748Z,96.14
2018-08-25T01:48:16.681Z,96.11
2018-08-25T01:50:46.565Z,96.45
2018-08-25T01:53:16.511Z,96.22
2018-08-25T01:55:46.085Z,96.13
2018-08-25T01:58:16.320Z,96.44
2018-08-25T02:00:45.761Z,96.06
2018-08-25T02:03:15.567Z,95.24
2018-08-25T02:05:45.233Z,95.91
2018-08-25T02:08:14.961Z,95.86
2018-08-25T02:10:44.592Z,95.58
2018-08-25T02:13:14.021Z,95.85
2018-08-25T02:15:43.374Z,95.27
2018-08-25T02:18:12.681Z,95.08
2018-08-25T02:20:42.012Z,95.14
2018-08-25T02:23:11.748Z,95.82
2018-08-25T02:25:41.320Z,95.62
2018-08-25T02:28:10.702Z,95.83
2018-08-25T02:30:39.990Z,95.72
2018-08-25T02:33:09.256Z,95.80
2018-08-25T02:35:38.552Z,95.62
2018-08-25T02:38:08.156Z,95.77
2018-08-25T02:40:38.646Z,95.81
2018-08-25T02:43:08.074Z,95.77
2018-08-25T02:45:37.605Z,96.52
2018-08-25T02:48:07.090Z,95.22
2018-08-25T02:50:36.430Z,95.10
2018-08-25T02:53:05.742Z,94.79
2018-08-25T02:55:35.341Z,95.33
2018-08-25T02:58:04.887Z,94.90
2018-08-25T03:00:34.278Z,95.33
2018-08-25T03:03:05.321Z,95.17
2018-08-25T03:05:34.609Z,94.90
2018-08-25T03:08:05.013Z,94.64
2018-08-25T03:10:34.268Z,94.37
2018-08-25T03:13:03.605Z,94.30
2018-08-25T03:15:32.995Z,94.49
2018-08-25T03:18:03.017Z,94.32
2018-08-25T03:20:32.330Z,94.60
2018-08-25T03:23:01.703Z,93.78
2018-08-25T03:25:31.056Z,93.52
2018-08-25T03:28:01.355Z,94.22
2018-08-25T03:30:30.655Z,93.87
2018-08-25T03:33:01.053Z,93.63
2018-08-25T03:35:30.433Z,93.02
2018-08-25T03:37:59.656Z,93.28
2018-08-25T03:40:28.987Z,93.47
2018-08-25T03:42:58.391Z,93.24
2018-08-25T03:45:27.637Z,93.11
2018-08-25T03:47:57.049Z,93.09
2018-08-25T03:50:26.573Z,92.72
2018-08-25T03:52:55.857Z,92.49
2018-08-25T03:55:25.871Z,92.65
2018-08-25T03:57:55.116Z,92.98
2018-08-25T04:00:24.478Z,92.13
2018-08-25T04:02:54.254Z,92.45
2018-08-25T04:05:23.608Z,92.88
2018-08-25T04:07:53.094Z,91.48
2018-08-25T04:10:22.638Z,92.05
2018-08-25T04:12:51.997Z,91.79
2018-08-25T04:15:21.346Z,91.70
2018-08-25T04:17:51.209Z,91.76
2018-08-25T04:20:20.722Z,91.89
2018-08-25T04:22:50.496Z,91.76
2018-08-25T04:25:20.021Z,91.62
2018-08-25T04:27:49.462Z,91.27
2018-08-25T04:30:18.906Z,91.11
2018-08-25T04:32:48.973Z,91.46
2018-08-25T04:35:18.654Z,91.76
2018-08-25T04:37:48.302Z,91.28
2018-08-25T04:40:18.165Z,91.15
2018-08-25T04:42:47.860Z,92.04
2018-08-25T04:45:18.017Z,90.87
2018-08-25T04:47:48.034Z,91.69
2018-08-25T04:50:17.560Z,90.78
2018-08-25T04:52:47.111Z,90.75
2018-08-25T04:55:16.477Z,91.19
2018-08-25T04:57:45.857Z,91.26
2018-08-25T05:00:15.161Z,90.41
2018-08-25T05:02:44.621Z,90.76
2018-08-25T05:05:13.969Z,90.02
2018-08-25T05:07:43.749Z,89.69
2018-08-25T05:10:13.179Z,89.67
2018-08-25T05:12:42.386Z,89.84
2018-08-25T05:15:11.713Z,89.11
2018-08-25T05:17:41.571Z,88.99
2018-08-25T05:20:10.830Z,89.09
2018-08-25T05:22:40.049Z,88.44
2018-08-25T05:25:11.029Z,88.25
2018-08-25T05:27:40.351Z,87.59
2018-08-25T05:30:09.750Z,87.79
2018-08-25T05:32:39.245Z,87.68
2018-08-25T05:35:08.531Z,87.37
2018-08-25T05:37:37.742Z,87.12
2018-08-25T05:40:08.654Z,87.86
2018-08-25T05:42:38.185Z,87.05
2018-08-25T05:45:07.461Z,86.17
2018-08-25T05:47:36.869Z,86.56
2018-08-25T05:50:06.081Z,86.31
2018-08-25T05:52:35.307Z,86.03
2018-08-25T05:55:04.701Z,85.96
2018-08-25T05:57:34.015Z,84.42
2018-08-25T06:00:03.321Z,84.53
2018-08-25T06:02:32.899Z,85.03
2018-08-25T06:05:02.094Z,84.59
2018-08-25T06:07:31.394Z,84.87
2018-08-25T06:10:01.212Z,84.42
2018-08-25T06:12:30.591Z,83.98
2018-08-25T06:15:00.325Z,83.39
2018-08-25T06:17:30.009Z,83.21
2018-08-25T06:19:59.254Z,82.41
2018-08-25T06:22:28.772Z,82.63
2018-08-25T06:24:58.240Z,82.17
2018-08-25T06:27:28.667Z,82.13
2018-08-25T06:29:58.138Z,81.67
2018-08-25T06:32:27.435Z,81.67
2018-08-25T06:34:56.923Z,81.41
2018-08-25T06:37:26.330Z,82.15
2018-08-25T06:39:56.497Z,81.10
2018-08-25T06:42:25.961Z,80.49
2018-08-25T06:44:55.351Z,80.15
2018-08-25T06:47:24.858Z,78.63
2018-08-25T06:49:57.009Z,78.30
2018-08-25T06:52:27.459Z,78.02
2018-08-25T06:54:57.500Z,77.39
2018-08-25T06:57:27.662Z,77.08
2018-08-25T06:59:57.795Z,77.68
2018-08-25T07:02:27.252Z,77.15
2018-08-25T07:04:56.772Z,77.30
2018-08-25T07:07:26.829Z,76.59
2018-08-25T07:09:56.446Z,76.59
2018-08-25T07:12:25.967Z,76.02
2018-08-25T07:14:56.800Z,76.77
2018-08-25T07:17:26.252Z,76.70
2018-08-25T07:19:56.637Z,76.91
2018-08-25T07:22:26.603Z,76.24
2018-08-25T07:24:56.499Z,75.75
2018-08-25T07:27:25.900Z,75.26
2018-08-25T07:29:55.417Z,73.95
2018-08-25T07:32:25.074Z,73.18
2018-08-25T07:34:54.901Z,72.81
2018-08-25T07:37:24.461Z,72.59
2018-08-25T07:39:54.205Z,72.00
2018-08-25T07:42:23.586Z,72.18
2018-08-25T07:44:53.001Z,71.91
2018-08-25T07:47:22.657Z,71.96
2018-08-25T07:49:51.974Z,72.44
2018-08-25T07:52:21.333Z,71.81
2018-08-25T07:54:50.930Z,71.64
2018-08-25T07:57:20.252Z,71.33
2018-08-25T07:59:50.505Z,70.73
2018-08-25T08:02:20.533Z,70.46
2018-08-25T08:04:51.348Z,70.32
2018-08-25T08:07:21.702Z,69.54
2018-08-25T08:09:51.754Z,68.96
2018-08-25T08:12:26.124Z,67.81
2018-08-25T08:14:55.951Z,67.33
2018-08-25T08:17:26.418Z,69.08
2018-08-25T08:19:55.883Z,70.22
2018-08-25T08:22:26.578Z,70.46
2018-08-25T08:24:56.337Z,70.31
2018-08-25T08:27:26.430Z,70.29
2018-08-25T08:29:55.921Z,69.97
2018-08-25T08:32:25.788Z,70.71
2018-08-25T08:34:55.793Z,71.02
2018-08-25T08:37:25.395Z,71.47
2018-08-25T08:39:54.929Z,72.23
2018-08-25T08:42:25.363Z,73.60
2018-08-25T08:44:55.111Z,72.80
2018-08-25T08:47:24.734Z,73.55
2018-08-25T08:49:55.781Z,74.81
2018-08-25T08:52:25.182Z,73.99
2018-08-25T08:54:54.918Z,74.68
2018-08-25T08:57:25.029Z,75.96
2018-08-25T08:59:54.980Z,74.28
2018-08-25T09:02:24.706Z,74.40
2018-08-25T09:04:54.641Z,75.40
2018-08-25T09:07:24.189Z,74.93
2018-08-25T09:09:53.850Z,75.60
2018-08-25T09:12:24.968Z,75.45
2018-08-25T09:14:54.790Z,75.79
2018-08-25T09:17:24.563Z,76.13
2018-08-25T09:19:55.158Z,78.39
2018-08-25T09:22:24.678Z,79.31
2018-08-25T09:24:54.097Z,78.67
2018-08-25T09:27:24.116Z,80.18
2018-08-25T09:29:53.978Z,79.97
2018-08-25T09:32:24.334Z,79.25
2018-08-25T09:34:55.447Z,79.13
2018-08-25T09:37:25.655Z,79.91
2018-08-25T09:39:56.115Z,79.63
2018-08-25T09:42:25.592Z,78.61
2018-08-25T09:44:55.403Z,78.50
2018-08-25T09:47:25.145Z,78.12
2018-08-25T09:49:55.748Z,77.26
2018-08-25T09:52:25.718Z,75.81
2018-08-25T09:54:55.401Z,76.83
2018-08-25T09:57:35.935Z,75.05
2018-08-25T10:00:12.322Z,75.00
2018-08-25T10:02:42.014Z,76.20
2018-08-25T10:05:11.443Z,76.55
2018-08-25T10:07:41.146Z,76.36
2018-08-25T10:10:13.573Z,75.92
2018-08-25T10:12:46.277Z,75.09
2018-08-25T10:15:20.861Z,76.15
2018-08-25T10:17:51.138Z,73.94
2018-08-25T10:20:21.210Z,74.59
2018-08-25T10:22:50.937Z,74.26
2018-08-25T10:25:22.740Z,72.86
2018-08-25T10:27:56.906Z,72.77
2018-08-25T10:30:27.357Z,73.22
2018-08-25T10:32:58.188Z,70.95
2018-08-25T10:35:27.790Z,70.69
2018-08-25T10:37:57.345Z,70.71
2018-08-25T10:40:27.262Z,73.01
2018-08-25T10:42:57.515Z,72.31
2018-08-25T10:45:27.293Z,74.10
2018-08-25T10:47:56.980Z,73.48
2018-08-25T10:50:26.502Z,75.36
2018-08-25T10:52:56.709Z,75.25
2018-08-25T10:58:18.790Z,75.62
2018-08-25T11:00:50.306Z,75.28
2018-08-25T11:03:19.948Z,75.56
2018-08-25T11:05:51.024Z,74.65
2018-08-25T11:08:20.614Z,74.61
2018-08-25T11:10:51.785Z,74.63
2018-08-25T11:13:21.403Z,74.82
2018-08-25T11:15:52.743Z,74.98
2018-08-25T11:18:22.434Z,76.05
2018-08-25T11:20:51.970Z,76.37
2018-08-25T11:23:21.565Z,77.06
2018-08-25T11:25:51.507Z,77.71
2018-08-25T11:28:22.765Z,77.47
2018-08-25T11:30:52.744Z,78.96
2018-08-25T11:33:22.454Z,77.59
2018-08-25T11:35:53.416Z,78.97
2018-08-25T11:38:23.032Z,77.83
2018-08-25T11:40:53.238Z,77.04
2018-08-25T11:43:22.907Z,72.98
2018-08-25T11:45:52.540Z,67.93
2018-08-25T11:48:22.025Z,67.08
2018-08-25T11:50:52.243Z,68.04
2018-08-25T11:53:21.836Z,68.55
2018-08-25T11:55:52.560Z,69.06
2018-08-25T11:58:22.098Z,69.60
2018-08-25T12:00:51.818Z,71.38
2018-08-25T12:03:21.335Z,73.43
2018-08-25T12:05:50.973Z,72.28
2018-08-25T12:08:20.675Z,73.81
2018-08-25T12:10:50.709Z,74.34
2018-08-25T12:13:20.518Z,74.40
2018-08-25T12:15:50.156Z,73.89
2018-08-25T12:18:19.681Z,75.06
2018-08-25T12:20:49.364Z,77.55
2018-08-25T12:23:19.617Z,81.08
2018-08-25T12:25:49.348Z,82.49
2018-08-25T12:28:19.978Z,83.98
2018-08-25T12:30:49.502Z,86.66
2018-08-25T12:33:19.629Z,87.46
2018-08-25T12:35:49.541Z,88.08
2018-08-25T12:38:19.442Z,88.84
2018-08-25T12:40:49.041Z,90.20
2018-08-25T12:43:18.879Z,90.72
2018-08-25T12:45:48.593Z,90.22
2018-08-25T12:48:18.822Z,90.14
2018-08-25T12:50:48.701Z,90.21
2018-08-25T12:53:19.642Z,89.94
2018-08-25T12:55:50.109Z,90.08
2018-08-25T12:58:19.874Z,89.31
2018-08-25T13:00:50.009Z,88.35
2018-08-25T13:03:19.993Z,87.82
2018-08-25T13:05:49.757Z,85.89
2018-08-25T13:08:19.905Z,86.57
2018-08-25T13:10:49.599Z,87.36
2018-08-25T13:13:19.389Z,85.01
2018-08-25T13:15:49.773Z,85.50
2018-08-25T13:18:19.749Z,85.29
2018-08-25T13:20:49.291Z,86.08
2018-08-25T13:23:19.101Z,85.16
2018-08-25T13:25:49.363Z,84.92
2018-08-25T13:28:19.122Z,84.97
2018-08-25T13:30:48.858Z,85.35
2018-08-25T13:33:19.235Z,84.91
2018-08-25T13:35:49.191Z,85.32
2018-08-25T13:38:19.226Z,83.78
2018-08-25T13:40:49.063Z,83.12
2018-08-25T13:43:19.493Z,82.10
2018-08-25T13:45:49.019Z,82.74
2018-08-25T13:48:18.996Z,82.79
2018-08-25T13:50:49.222Z,83.05
2018-08-25T13:53:19.177Z,83.68
2018-08-25T13:55:49.957Z,84.24
2018-08-25T13:58:21.888Z,83.54
2018-08-25T14:00:51.657Z,84.64
2018-08-25T14:03:21.265Z,84.80
2018-08-25T14:05:51.077Z,84.51
2018-08-25T14:08:20.761Z,86.01
2018-08-25T14:10:51.431Z,86.70
2018-08-25T14:13:21.122Z,86.90
2018-08-25T14:15:50.995Z,87.51
2018-08-25T14:18:20.681Z,88.29
2018-08-25T14:20:50.181Z,89.09
2018-08-25T14:23:20.482Z,89.94
2018-08-25T14:25:50.374Z,91.04
2018-08-25T14:28:20.593Z,91.79
2018-08-25T14:30:51.075Z,91.82
2018-08-25T14:33:20.888Z,92.42
2018-08-25T14:35:50.628Z,92.67
2018-08-25T14:38:20.267Z,92.70
2018-08-25T14:40:49.757Z,92.35
2018-08-25T14:43:19.627Z,91.72
2018-08-25T14:45:49.418Z,91.10
2018-08-25T14:48:19.103Z,91.63
2018-08-25T14:50:49.654Z,91.13
2018-08-25T14:53:19.195Z,90.76
2018-08-25T14:55:50.501Z,90.19
2018-08-25T14:58:20.594Z,88.95
2018-08-25T15:00:50.971Z,86.54
2018-08-25T15:03:20.775Z,84.78
2018-08-25T15:05:50.427Z,82.46
2018-08-25T15:08:20.627Z,82.32
2018-08-25T15:10:50.295Z,81.29
2018-08-25T15:13:19.622Z,79.85
2018-08-25T15:15:49.288Z,78.12
2018-08-25T15:18:18.899Z,79.08
2018-08-25T15:20:48.302Z,79.08
2018-08-25T15:23:17.889Z,80.02
2018-08-25T15:25:47.570Z,80.57
2018-08-25T15:28:17.363Z,80.31
2018-08-25T15:30:46.990Z,81.03
2018-08-25T15:33:17.468Z,81.85
2018-08-25T15:35:46.970Z,82.22
2018-08-25T15:38:16.577Z,82.97
2018-08-25T15:40:46.392Z,83.18
2018-08-25T15:43:16.055Z,84.45
2018-08-25T15:45:50.009Z,84.32
2018-08-25T15:48:19.888Z,83.09
2018-08-25T15:50:49.361Z,84.22
2018-08-25T15:53:19.710Z,83.67
2018-08-25T15:55:53.697Z,82.76
2018-08-25T15:58:23.481Z,82.96
2018-08-25T16:00:53.699Z,82.21
2018-08-25T16:03:23.324Z,82.85
2018-08-25T16:05:52.900Z,80.47
2018-08-25T16:08:22.657Z,80.13
2018-08-25T16:10:52.948Z,80.60
2018-08-25T16:13:24.757Z,80.85
2018-08-25T16:15:54.422Z,80.95
2018-08-25T16:18:24.127Z,80.66
2018-08-25T16:21:01.879Z,81.39
2018-08-25T16:23:32.448Z,81.32
2018-08-25T16:26:03.765Z,82.21
2018-08-25T16:28:33.057Z,81.52
2018-08-25T16:31:02.605Z,82.21
2018-08-25T16:33:32.139Z,82.46
2018-08-25T16:36:02.089Z,82.82
2018-08-25T16:38:32.067Z,82.50
2018-08-25T16:41:03.599Z,81.52
2018-08-25T16:43:34.504Z,81.42
2018-08-25T16:46:04.154Z,81.60
2018-08-25T16:48:35.450Z,81.69
2018-08-25T16:51:05.433Z,82.18
2018-08-25T16:53:34.882Z,81.22
2018-08-25T16:56:04.349Z,81.57
2018-08-25T16:58:34.162Z,80.98
2018-08-25T17:01:03.593Z,81.38
2018-08-25T17:03:32.953Z,79.59
2018-08-25T17:06:02.570Z,79.59
2018-08-25T17:08:31.981Z,78.72
2018-08-25T17:11:02.146Z,78.72
2018-08-25T17:13:32.278Z,78.77
2018-08-25T17:16:01.520Z,78.85
2018-08-25T17:18:30.925Z,78.26
2018-08-25T17:21:00.413Z,78.19
2018-08-25T17:23:29.729Z,78.24
2018-08-25T17:26:00.479Z,78.56
2018-08-25T17:28:31.370Z,78.36
2018-08-25T17:31:03.595Z,78.74
2018-08-25T17:33:35.084Z,78.85
2018-08-25T17:36:04.590Z,78.49
2018-08-25T17:38:34.578Z,78.74
2018-08-25T17:41:06.513Z,79.24
2018-08-25T17:46:41.271Z,79.58
2018-08-25T17:49:14.230Z,80.19
2018-08-25T17:51:46.594Z,80.85
2018-08-25T17:54:18.004Z,81.25
2018-08-25T17:56:48.458Z,80.82
2018-08-25T17:59:20.774Z,81.71
2018-08-25T18:01:52.313Z,82.63
2018-08-25T18:04:23.643Z,82.70
2018-08-25T18:09:35.141Z,82.91
2018-08-25T18:12:05.985Z,83.45
2018-08-25T18:14:42.389Z,82.90
2018-08-25T18:17:13.460Z,83.79
2018-08-25T18:19:54.994Z,84.05
2018-08-25T18:22:32.149Z,84.41
2018-08-25T18:25:27.302Z,85.14
2018-08-25T18:52:16.412Z,86.41
2018-08-25T18:54:47.899Z,85.98
2018-08-25T18:57:17.881Z,86.54
2018-08-25T18:59:47.614Z,87.21
2018-08-25T19:02:17.406Z,87.56
2018-08-25T19:04:47.235Z,86.77
2018-08-25T19:07:17.486Z,87.29
2018-08-25T19:09:47.226Z,87.02
2018-08-25T19:12:24.479Z,87.12
2018-08-25T19:14:56.418Z,87.83
2018-08-25T19:17:27.445Z,86.93
2018-08-25T19:19:56.954Z,87.23
2018-08-25T19:22:27.588Z,87.18
2018-08-25T19:24:57.391Z,88.15
2018-08-25T19:27:27.406Z,87.57
2018-08-25T19:29:57.026Z,88.09
2018-08-25T19:32:26.821Z,88.63
2018-08-25T19:34:56.679Z,88.76
2018-08-25T19:37:26.349Z,88.88
2018-08-25T19:39:58.402Z,89.27
2018-08-25T19:42:27.728Z,90.16
2018-08-25T19:44:57.344Z,91.06
2018-08-25T19:47:26.696Z,90.96
2018-08-25T19:49:56.337Z,91.51
2018-08-25T19:52:26.011Z,91.10
2018-08-25T19:54:58.117Z,91.76
2018-08-25T19:57:27.639Z,92.53
2018-08-25T19:59:58.450Z,92.21
2018-08-25T20:02:28.365Z,92.55
2018-08-25T20:04:58.270Z,92.29
2018-08-25T20:07:28.489Z,92.30
2018-08-25T20:09:57.897Z,93.08
2018-08-25T20:12:29.116Z,91.96
2018-08-25T20:15:08.309Z,92.73
2018-08-25T20:17:38.733Z,92.80
2018-08-25T20:20:08.402Z,92.55
2018-08-25T20:22:38.336Z,92.35
2018-08-25T20:25:11.433Z,92.15
2018-08-25T20:27:40.770Z,92.94
2018-08-25T20:30:10.215Z,92.93
2018-08-25T20:32:39.835Z,92.55
2018-08-25T20:35:09.920Z,92.67
2018-08-25T20:37:39.147Z,93.33
2018-08-25T20:40:08.777Z,93.96
2018-08-25T20:42:37.998Z,94.28
2018-08-25T20:45:08.319Z,94.54
2018-08-25T20:47:37.693Z,94.53
2018-08-25T20:50:07.529Z,93.94
2018-08-25T20:52:41.909Z,94.22
2018-08-25T20:55:13.360Z,94.33
2018-08-25T20:57:43.480Z,94.65
2018-08-25T21:00:12.760Z,94.54
2018-08-25T21:02:42.523Z,94.40
2018-08-25T21:05:11.865Z,94.00
2018-08-25T21:07:41.153Z,93.75
2018-08-25T21:10:10.781Z,94.09
2018-08-25T21:12:40.055Z,93.57
2018-08-25T21:15:09.371Z,93.22
2018-08-25T21:17:38.647Z,93.50
2018-08-25T21:20:08.016Z,92.77
2018-08-25T21:22:38.440Z,92.00
2018-08-25T21:25:08.058Z,91.35
2018-08-25T21:27:37.590Z,90.75
2018-08-25T21:30:12.420Z,91.10
2018-08-25T21:32:50.248Z,91.14
2018-08-25T21:35:21.638Z,91.18
2018-08-25T21:37:51.584Z,90.78
2018-08-25T21:40:22.269Z,91.41
2018-08-25T21:42:52.686Z,91.39
2018-08-25T21:45:22.100Z,91.82
2018-08-25T21:47:51.728Z,91.45
2018-08-25T21:50:25.209Z,92.16
2018-08-25T21:53:01.369Z,92.13
2018-08-25T21:58:11.394Z,92.45
2018-08-25T22:00:49.238Z,92.26
2018-08-25T22:03:27.343Z,92.95
2018-08-25T22:06:05.588Z,92.73
2018-08-25T22:08:36.822Z,93.42
2018-08-25T22:11:06.127Z,93.20
2018-08-25T22:13:36.617Z,93.86
2018-08-25T22:16:10.700Z,93.59
2018-08-25T22:18:42.392Z,93.49
2018-08-25T22:21:12.068Z,93.33
2018-08-25T22:23:44.632Z,93.16
2018-08-25T22:26:14.479Z,93.26
2018-08-25T22:28:44.108Z,93.00
2018-08-25T22:31:13.503Z,93.03
2018-08-25T22:33:42.812Z,93.48
2018-08-25T22:36:12.594Z,93.33
2018-08-25T22:38:43.098Z,93.46
2018-08-25T22:41:12.784Z,93.20
2018-08-25T22:43:42.649Z,92.80
2018-08-25T22:46:14.558Z,93.05
2018-08-25T22:48:46.009Z,93.01
2018-08-25T22:51:17.488Z,93.35
2018-08-25T22:53:47.466Z,93.07
2018-08-25T22:56:17.658Z,93.45
2018-08-25T22:58:47.258Z,93.42
2018-08-25T23:01:16.894Z,93.21
2018-08-25T23:03:46.452Z,93.21
2018-08-25T23:06:15.976Z,93.58
2018-08-25T23:08:46.880Z,92.57
2018-08-25T23:11:16.384Z,92.85
2018-08-25T23:13:45.939Z,92.29
2018-08-25T23:16:15.497Z,92.53
2018-08-25T23:18:44.871Z,92.51
2018-08-25T23:21:14.344Z,92.41
2018-08-25T23:23:43.586Z,92.79
2018-08-25T23:26:12.864Z,92.88
2018-08-25T23:28:42.287Z,92.51
2018-08-25T23:31:11.761Z,93.05
2018-08-25T23:33:41.021Z,93.49
2018-08-25T23:36:10.456Z,93.13
2018-08-25T23:38:40.250Z,93.12
2018-08-25T23:41:09.448Z,93.25
2018-08-25T23:43:39.070Z,93.03
2018-08-25T23:46:08.331Z,92.65
2018-08-25T23:48:37.697Z,92.66
2018-08-25T23:51:07.027Z,92.69
2018-08-25T23:53:36.431Z,92.31
2018-08-25T23:56:06.465Z,92.22
2018-08-25T23:58:35.826Z,92.44
